Time;durP1;ratioP1;P1;durP2;ratioP2;P2;SDS_P1;SDS_P2;PMS_P1;PMS_P2;Temp;Humidity;BMP_temperature;BMP_pressure;BME280_temperature;BME280_humidity;BME280_pressure;Samples;Min_cycle;Max_cycle;Signal;HPM_P1;HPM_P2
2021/07/27 00:03:43;;;;;;;0.43;0.43;;;23.20;99.90;;;;;;20771474;28;20234;-66
2021/07/27 00:13:46;;;;;;;4.33;1.87;;;23.30;99.90;;;;;;20772206;28;20203;-67
2021/07/27 00:23:51;;;;;;;0.70;0.63;;;23.20;99.90;;;;;;20784227;28;20264;-67
2021/07/27 00:33:55;;;;;;;2.40;0.57;;;23.10;99.90;;;;;;20786162;28;20204;-67
2021/07/27 00:44:00;;;;;;;2.83;1.23;;;23.00;99.90;;;;;;20786135;28;20553;-66
2021/07/27 00:54:06;;;;;;;1.53;1.33;;;22.90;99.90;;;;;;20783479;28;20202;-67
2021/07/27 01:04:11;;;;;;;2.17;1.37;;;22.70;99.90;;;;;;20786752;28;20556;-65
2021/07/27 01:14:15;;;;;;;2.83;0.87;;;22.70;99.90;;;;;;20783363;28;20202;-66
2021/07/27 01:45:15;;;;;;;3.57;2.23;;;22.40;99.90;;;;;;20780914;28;20238;-66
2021/07/27 01:55:20;;;;;;;1.37;0.50;;;22.30;99.90;;;;;;20781039;28;20206;-67
2021/07/27 02:05:25;;;;;;;0.90;0.90;;;22.30;99.90;;;;;;20778982;28;20380;-67
2021/07/27 02:15:38;;;;;;;0.93;0.60;;;22.20;99.90;;;;;;20778889;28;20198;-67
2021/07/27 02:25:44;;;;;;;1.73;1.40;;;22.40;99.90;;;;;;20779532;28;20558;-67
2021/07/27 02:35:48;;;;;;;1.90;0.77;;;22.50;99.90;;;;;;20776936;28;20205;-66
2021/07/27 02:45:52;;;;;;;1.40;0.47;;;22.50;99.90;;;;;;20775313;28;20229;-67
2021/07/27 02:55:57;;;;;;;0.67;0.63;;;22.60;99.90;;;;;;20774717;28;20225;-66
2021/07/27 03:06:03;;;;;;;1.43;0.93;;;22.80;99.90;;;;;;20777137;28;20643;-66
2021/07/27 03:16:06;;;;;;;2.30;1.67;;;22.90;99.90;;;;;;20777922;28;20205;-66
2021/07/27 03:26:11;;;;;;;1.63;0.50;;;22.80;99.90;;;;;;20777184;28;20222;-65
2021/07/27 03:36:15;;;;;;;0.53;0.53;;;22.60;99.90;;;;;;20776031;28;20931;-65
2021/07/27 03:46:20;;;;;;;1.50;0.80;;;22.50;99.90;;;;;;20774972;28;20222;-68
2021/07/27 03:56:24;;;;;;;1.73;1.30;;;22.50;99.90;;;;;;20782963;28;20269;-67
2021/07/27 04:06:29;;;;;;;0.57;0.50;;;22.40;99.90;;;;;;20808594;22;20238;-68
2021/07/27 04:16:34;;;;;;;14.70;0.80;;;22.40;99.90;;;;;;20770348;28;20205;-67
2021/07/27 04:26:39;;;;;;;0.40;0.40;;;22.50;99.90;;;;;;20785899;28;20233;-68
2021/07/27 04:36:43;;;;;;;7.73;1.07;;;22.20;99.90;;;;;;20784733;28;20312;-68
2021/07/27 04:46:48;;;;;;;0.73;0.73;;;21.70;99.90;;;;;;20781878;28;20240;-68
2021/07/27 04:56:52;;;;;;;1.07;0.97;;;21.40;99.90;;;;;;20768852;28;20556;-68
2021/07/27 05:06:57;;;;;;;0.33;0.33;;;21.70;99.90;;;;;;20779481;28;20573;-68
2021/07/27 05:17:08;;;;;;;2.03;0.53;;;22.20;99.90;;;;;;20783969;28;20648;-68
2021/07/27 05:27:13;;;;;;;0.60;0.37;;;22.60;99.90;;;;;;20782608;28;20604;-68
2021/07/27 05:37:17;;;;;;;0.70;0.70;;;22.80;99.90;;;;;;20781916;28;20560;-68
2021/07/27 05:47:22;;;;;;;23.60;2.10;;;23.00;99.90;;;;;;20782090;28;20225;-68
2021/07/27 05:57:26;;;;;;;0.83;0.50;;;23.20;99.90;;;;;;20792039;28;20248;-68
2021/07/27 06:07:32;;;;;;;0.37;0.37;;;23.40;99.90;;;;;;20783914;28;20242;-67
2021/07/27 06:17:36;;;;;;;1.67;0.40;;;23.90;99.90;;;;;;20779003;28;20305;-68
2021/07/27 06:27:41;;;;;;;2.57;1.50;;;24.00;99.90;;;;;;20779245;28;20225;-68
2021/07/27 06:37:45;;;;;;;0.75;0.30;;;24.20;99.90;;;;;;20775113;28;20342;-68
2021/07/27 06:47:50;;;;;;;2.13;1.10;;;24.70;99.90;;;;;;20773984;28;20230;-68
2021/07/27 06:57:54;;;;;;;0.52;0.52;;;24.80;99.90;;;;;;20774088;28;20205;-64
2021/07/27 07:07:59;;;;;;;2.15;1.95;;;25.10;99.90;;;;;;20775535;28;20256;-67
2021/07/27 07:18:03;;;;;;;1.25;0.93;;;25.40;99.90;;;;;;20756152;28;20204;-67
2021/07/27 07:28:08;;;;;;;1.45;1.00;;;25.40;99.90;;;;;;20772953;28;20229;-66
2021/07/27 07:38:12;;;;;;;0.70;0.70;;;25.50;99.90;;;;;;20773053;28;20204;-67
2021/07/27 07:48:17;;;;;;;2.45;0.88;;;25.70;99.90;;;;;;20754645;28;20228;-68
2021/07/27 07:58:20;;;;;;;1.65;0.90;;;25.90;99.90;;;;;;20753649;28;20202;-67
2021/07/27 08:08:25;;;;;;;1.33;0.77;;;26.40;99.90;;;;;;20754389;28;20226;-68
2021/07/27 08:18:29;;;;;;;2.55;1.38;;;26.40;99.90;;;;;;20775430;28;20198;-69
2021/07/27 08:28:34;;;;;;;1.00;0.77;;;26.90;99.90;;;;;;20780690;28;20703;-67
2021/07/27 08:38:37;;;;;;;4.75;1.35;;;27.00;99.90;;;;;;20768597;28;20192;-67
2021/07/27 08:48:43;;;;;;;1.77;1.25;;;26.90;99.90;;;;;;20725356;28;20222;-68
2021/07/27 08:58:46;;;;;;;1.75;0.95;;;26.60;99.90;;;;;;20730793;28;20965;-68
2021/07/27 09:09:05;;;;;;;1.50;1.05;;;27.20;99.90;;;;;;20781370;28;20249;-68
2021/07/27 09:19:08;;;;;;;1.00;0.63;;;27.40;99.90;;;;;;20764574;28;20213;-68
2021/07/27 09:29:14;;;;;;;0.60;0.60;;;27.60;99.90;;;;;;20783825;28;20540;-69
2021/07/27 09:39:18;;;;;;;2.58;0.98;;;27.80;99.90;;;;;;20729496;28;20213;-68
2021/07/27 09:49:23;;;;;;;2.13;1.20;;;28.00;99.90;;;;;;20780419;28;20225;-67
2021/07/27 09:59:30;;;;;;;0.77;0.50;;;28.30;99.90;;;;;;20779686;28;20198;-68
2021/07/27 10:09:36;;;;;;;2.55;1.33;;;27.90;99.90;;;;;;20779948;28;20339;-67
2021/07/27 10:19:41;;;;;;;1.50;0.80;;;28.00;99.90;;;;;;20777753;28;20202;-66
2021/07/27 10:29:47;;;;;;;2.28;1.15;;;27.90;99.90;;;;;;20776567;28;20233;-67
2021/07/27 10:39:53;;;;;;;11.13;1.75;;;28.00;99.90;;;;;;20776499;28;20515;-68
2021/07/27 10:50:04;;;;;;;5.05;1.48;;;28.40;99.90;;;;;;20774696;28;20590;-67
2021/07/27 11:00:08;;;;;;;1.95;0.80;;;28.20;99.90;;;;;;20775597;28;20253;-68
2021/07/27 11:10:13;;;;;;;1.88;0.80;;;28.50;99.90;;;;;;20774622;28;20230;-68
2021/07/27 11:20:20;;;;;;;1.20;0.70;;;28.60;99.90;;;;;;20771356;28;20204;-67
2021/07/27 11:30:38;;;;;;;2.83;1.15;;;28.30;99.90;;;;;;20774689;28;20921;-68
2021/07/27 11:40:41;;;;;;;0.65;0.40;;;29.20;99.90;;;;;;20773157;28;20597;-69
2021/07/27 11:50:46;;;;;;;1.50;0.70;;;28.50;99.90;;;;;;20774011;28;20680;-67
2021/07/27 12:00:56;;;;;;;4.82;1.70;;;29.10;99.90;;;;;;20774469;28;20682;-67
2021/07/27 12:11:02;;;;;;;3.10;1.15;;;29.60;99.90;;;;;;20768635;28;20256;-69
2021/07/27 12:21:06;;;;;;;2.05;0.80;;;29.80;99.90;;;;;;20785530;28;20201;-69
2021/07/27 12:31:11;;;;;;;3.47;1.00;;;30.10;99.90;;;;;;20785571;28;20719;-70
2021/07/27 12:41:14;;;;;;;2.67;1.17;;;30.70;99.90;;;;;;20784951;28;20198;-68
2021/07/27 12:51:19;;;;;;;0.80;0.70;;;31.00;99.90;;;;;;20791472;28;20634;-68
2021/07/27 13:01:23;;;;;;;2.67;1.10;;;31.70;99.90;;;;;;20783575;28;20304;-68
2021/07/27 13:11:29;;;;;;;3.17;1.65;;;30.50;99.90;;;;;;20763705;28;20575;-68
2021/07/27 13:21:33;;;;;;;2.25;1.50;;;30.90;99.90;;;;;;20783142;28;20201;-70
2021/07/27 13:31:38;;;;;;;1.88;1.20;;;31.20;99.90;;;;;;20762916;28;20233;-69
2021/07/27 13:41:42;;;;;;;2.22;1.25;;;32.00;99.90;;;;;;20786120;28;20277;-69
2021/07/27 13:51:47;;;;;;;2.03;1.20;;;31.70;99.90;;;;;;20791289;28;20575;-69
2021/07/27 14:01:50;;;;;;;1.83;1.50;;;31.30;99.90;;;;;;20778176;28;20553;-68
2021/07/27 14:11:55;;;;;;;4.10;2.70;;;32.50;99.90;;;;;;20780416;28;20233;-71
2021/07/27 14:21:59;;;;;;;4.30;1.15;;;31.80;99.90;;;;;;20778348;28;20201;-69
2021/07/27 14:32:05;;;;;;;2.20;1.23;;;33.40;99.90;;;;;;20777384;28;20225;-69
2021/07/27 14:42:09;;;;;;;2.08;1.48;;;32.90;99.90;;;;;;20770855;28;20221;-69
2021/07/27 14:52:14;;;;;;;2.40;1.42;;;32.80;99.90;;;;;;20776429;28;20230;-69
2021/07/27 15:02:18;;;;;;;1.35;1.25;;;33.10;99.90;;;;;;20772483;28;20848;-68
2021/07/27 15:12:23;;;;;;;3.72;1.88;;;32.90;99.90;;;;;;20773199;28;20711;-67
2021/07/27 15:22:28;;;;;;;2.00;1.33;;;32.90;99.90;;;;;;20772861;28;20646;-72
2021/07/27 15:32:35;;;;;;;8.07;1.63;;;32.80;99.90;;;;;;20771199;28;20233;-69
2021/07/27 15:42:56;;;;;;;7.28;1.58;;;32.50;99.90;;;;;;20773047;28;20698;-69
2021/07/27 15:53:01;;;;;;;5.80;1.40;;;32.40;99.90;;;;;;20781061;28;20537;-68
2021/07/27 16:03:05;;;;;;;2.17;1.70;;;32.40;99.90;;;;;;20787787;28;20228;-62
2021/07/27 16:13:10;;;;;;;2.67;1.25;;;32.00;99.90;;;;;;20787429;28;20549;-68
2021/07/27 16:23:13;;;;;;;1.63;1.42;;;32.80;99.90;;;;;;20785270;28;20362;-66
2021/07/27 16:33:18;;;;;;;1.70;1.27;;;30.80;99.90;;;;;;20786729;28;20226;-67
2021/07/27 16:43:22;;;;;;;2.67;1.58;;;29.30;99.90;;;;;;20785015;28;20306;-66
2021/07/27 16:53:27;;;;;;;1.35;1.25;;;29.00;99.90;;;;;;20786412;28;20599;-64
2021/07/27 17:03:30;;;;;;;7.22;1.83;;;29.20;99.90;;;;;;20785644;28;20234;-68
2021/07/27 17:13:35;;;;;;;8.57;1.77;;;30.20;99.90;;;;;;20792793;28;20229;-67
2021/07/27 17:23:39;;;;;;;2.58;1.60;;;31.50;99.90;;;;;;20782629;28;20194;-67
2021/07/27 17:33:44;;;;;;;1.20;0.88;;;31.10;99.90;;;;;;20782837;28;20249;-68
2021/07/27 17:43:48;;;;;;;1.65;1.40;;;31.40;99.90;;;;;;20761870;28;20201;-68
2021/07/27 17:53:53;;;;;;;26.50;2.33;;;31.10;99.90;;;;;;20779450;28;20223;-67
2021/07/27 18:03:57;;;;;;;1.45;1.17;;;30.60;99.90;;;;;;20780112;28;20226;-68
2021/07/27 18:14:02;;;;;;;2.55;1.10;;;30.50;99.90;;;;;;20779792;28;20226;-69
2021/07/27 18:24:26;;;;;;;1.38;0.73;;;28.30;99.90;;;;;;20778515;28;20559;-68
2021/07/27 18:34:31;;;;;;;3.03;2.35;;;27.40;99.90;;;;;;20779004;28;20240;-69
2021/07/27 18:44:35;;;;;;;2.58;1.48;;;28.30;99.90;;;;;;20777048;28;20195;-69
2021/07/27 18:54:40;;;;;;;1.13;0.90;;;27.30;99.90;;;;;;20778950;28;20225;-69
2021/07/27 19:04:43;;;;;;;6.03;1.63;;;26.50;99.90;;;;;;20772826;28;20218;-67
2021/07/27 19:14:51;;;;;;;1.35;1.05;;;26.30;99.90;;;;;;20775467;28;20564;-66
2021/07/27 19:24:54;;;;;;;0.85;0.85;;;26.00;99.90;;;;;;20773689;28;20550;-67
2021/07/27 19:34:59;;;;;;;1.63;1.40;;;26.00;99.90;;;;;;20773126;28;20233;-67
2021/07/27 19:45:12;;;;;;;9.93;1.13;;;25.80;99.90;;;;;;20772865;28;20640;-67
2021/07/27 19:55:18;;;;;;;1.25;1.15;;;25.70;99.90;;;;;;20770723;28;20233;-68
2021/07/27 20:05:22;;;;;;;1.13;0.88;;;25.60;99.90;;;;;;20773901;28;20230;-66
2021/07/27 20:15:27;;;;;;;1.40;1.30;;;25.80;99.90;;;;;;20773254;28;20240;-68
2021/07/27 20:25:31;;;;;;;11.38;1.40;;;25.50;99.90;;;;;;20774696;28;20197;-67
2021/07/27 20:35:36;;;;;;;2.28;1.92;;;25.40;99.90;;;;;;20776974;28;20253;-67
2021/07/27 20:45:40;;;;;;;2.10;1.25;;;25.40;99.90;;;;;;20770249;28;20197;-67
2021/07/27 20:55:45;;;;;;;1.65;0.93;;;25.50;99.90;;;;;;20787226;28;20505;-66
2021/07/27 21:05:49;;;;;;;2.47;1.13;;;25.30;99.90;;;;;;20785920;28;20229;-69
2021/07/27 21:15:54;;;;;;;5.15;1.70;;;25.20;99.90;;;;;;20791953;28;20271;-67
2021/07/27 21:26:00;;;;;;;2.10;0.97;;;25.10;99.90;;;;;;20798162;28;20194;-68
2021/07/27 21:36:05;;;;;;;1.40;0.32;;;24.80;99.90;;;;;;20788551;28;20499;-68
2021/07/27 21:46:09;;;;;;;0.50;0.50;;;24.70;99.90;;;;;;20781377;28;20198;-68
2021/07/27 21:56:14;;;;;;;2.73;1.50;;;24.40;99.90;;;;;;20783545;28;20234;-67
2021/07/27 22:06:25;;;;;;;1.27;0.90;;;24.20;99.90;;;;;;20778837;28;20222;-68
2021/07/27 22:16:30;;;;;;;0.83;0.80;;;24.10;99.90;;;;;;20780016;28;20660;-68
2021/07/27 22:26:34;;;;;;;4.63;1.53;;;23.90;99.90;;;;;;20779292;28;20439;-68
2021/07/27 22:36:39;;;;;;;0.67;0.67;;;23.70;99.90;;;;;;20777517;28;20202;-69
2021/07/27 22:46:43;;;;;;;1.20;1.07;;;23.70;99.90;;;;;;20778898;28;20563;-67
2021/07/27 22:56:48;;;;;;;3.80;1.30;;;23.40;99.90;;;;;;20777027;28;20190;-69
2021/07/27 23:06:52;;;;;;;2.70;1.67;;;23.60;99.90;;;;;;20776118;28;20233;-69
2021/07/27 23:16:57;;;;;;;1.10;0.97;;;23.40;99.90;;;;;;20776749;28;20205;-66
2021/07/27 23:27:00;;;;;;;1.70;0.97;;;23.50;99.90;;;;;;20776768;28;20222;-68
2021/07/27 23:37:05;;;;;;;1.13;0.63;;;23.40;99.90;;;;;;20775619;28;20202;-69
2021/07/27 23:47:09;;;;;;;1.03;0.80;;;23.10;99.90;;;;;;20775975;28;20564;-68
2021/07/27 23:57:14;;;;;;;0.30;0.30;;;22.90;99.90;;;;;;20775666;28;20210;-67
